createdAt,value
2018-07-06T00:00:47.456Z,6.30
2018-07-06T00:03:33.209Z,6.70
2018-07-06T00:06:19.390Z,7.00
2018-07-06T00:09:05.311Z,6.27
2018-07-06T00:11:50.870Z,6.57
2018-07-06T00:14:36.534Z,6.47
2018-07-06T00:17:22.945Z,7.27
2018-07-06T00:20:08.553Z,7.33
2018-07-06T00:22:54.174Z,7.57
2018-07-06T00:25:39.672Z,7.50
2018-07-06T00:28:26.096Z,7.37
2018-07-06T00:31:11.466Z,7.40
2018-07-06T00:33:57.015Z,7.73
2018-07-06T00:36:42.418Z,7.53
2018-07-06T00:39:28.042Z,7.53
2018-07-06T00:42:13.501Z,7.60
2018-07-06T00:44:59.176Z,8.00
2018-07-06T00:47:45.273Z,7.37
2018-07-06T00:50:30.855Z,8.43
2018-07-06T00:53:16.281Z,7.70
2018-07-06T00:56:01.918Z,7.63
2018-07-06T00:58:48.422Z,7.60
2018-07-06T01:01:35.146Z,7.73
2018-07-06T01:04:20.809Z,8.13
2018-07-06T01:07:06.437Z,8.27
2018-07-06T01:09:51.854Z,7.90
2018-07-06T01:12:42.918Z,7.87
2018-07-06T01:15:33.783Z,8.70
2018-07-06T01:18:19.416Z,8.40
2018-07-06T01:21:05.003Z,7.90
2018-07-06T01:23:50.425Z,7.93
2018-07-06T01:26:36.119Z,8.37
2018-07-06T01:29:22.219Z,8.60
2018-07-06T01:32:07.749Z,8.70
2018-07-06T01:34:53.451Z,8.13
2018-07-06T01:37:39.149Z,9.17
2018-07-06T01:40:24.681Z,8.60
2018-07-06T01:43:10.147Z,9.10
2018-07-06T01:45:55.763Z,9.10
2018-07-06T01:48:41.460Z,8.83
2018-07-06T01:51:26.847Z,8.77
2018-07-06T01:54:12.399Z,8.57
2018-07-06T01:56:57.780Z,8.77
2018-07-06T01:59:43.674Z,9.07
2018-07-06T02:02:29.334Z,9.30
2018-07-06T02:05:15.053Z,9.80
2018-07-06T02:08:00.679Z,9.50
2018-07-06T02:10:46.413Z,9.30
2018-07-06T02:13:32.023Z,9.10
2018-07-06T02:16:17.488Z,8.57
2018-07-06T02:19:03.725Z,8.80
2018-07-06T02:21:50.034Z,9.07
2018-07-06T02:24:36.728Z,9.17
2018-07-06T02:27:22.239Z,8.97
2018-07-06T02:30:07.999Z,8.67
2018-07-06T02:32:53.669Z,8.77
2018-07-06T02:35:39.198Z,8.77
2018-07-06T02:38:24.576Z,8.30
2018-07-06T02:41:11.241Z,8.80
2018-07-06T02:43:56.843Z,8.27
2018-07-06T02:46:42.290Z,8.30
2018-07-06T02:49:27.686Z,8.17
2018-07-06T02:52:13.090Z,8.03
2018-07-06T02:54:59.933Z,8.50
2018-07-06T02:57:45.403Z,8.37
2018-07-06T03:00:30.934Z,8.57
2018-07-06T03:03:17.539Z,8.20
2018-07-06T03:06:03.056Z,7.83
2018-07-06T03:08:48.526Z,6.90
2018-07-06T03:11:34.010Z,6.63
2018-07-06T03:14:19.457Z,6.93
2018-07-06T03:17:05.111Z,5.90
2018-07-06T03:19:50.775Z,5.73
2018-07-06T03:22:37.137Z,5.80
2018-07-06T03:25:17.544Z,6.33
2018-07-06T03:28:03.101Z,6.30
2018-07-06T03:30:48.669Z,5.93
2018-07-06T03:33:34.272Z,5.93
2018-07-06T03:36:19.994Z,6.30
2018-07-06T03:39:05.477Z,6.10
2018-07-06T03:41:51.048Z,5.80
2018-07-06T03:44:37.280Z,5.60
2018-07-06T03:47:22.878Z,5.90
2018-07-06T03:50:08.330Z,5.93
2018-07-06T03:52:54.005Z,6.00
2018-07-06T03:55:39.622Z,5.40
2018-07-06T03:58:25.056Z,5.57
2018-07-06T04:01:10.686Z,6.17
2018-07-06T04:03:56.384Z,6.77
2018-07-06T04:06:42.753Z,6.53
2018-07-06T04:09:28.197Z,6.83
2018-07-06T04:12:13.937Z,6.03
2018-07-06T04:14:59.548Z,5.67
2018-07-06T04:17:44.978Z,6.00
2018-07-06T04:20:30.760Z,6.43
2018-07-06T04:23:16.337Z,7.00
2018-07-06T04:26:01.765Z,7.70
2018-07-06T04:28:47.219Z,7.50
2018-07-06T04:31:32.872Z,7.50
2018-07-06T04:34:18.568Z,7.70
2018-07-06T04:37:04.176Z,6.70
2018-07-06T04:39:44.827Z,6.40
2018-07-06T04:42:30.538Z,5.53
2018-07-06T04:45:16.050Z,5.67
2018-07-06T04:48:01.737Z,5.67
2018-07-06T04:50:47.405Z,5.40
2018-07-06T04:53:33.134Z,5.40
2018-07-06T04:56:18.565Z,5.17
2018-07-06T04:59:04.116Z,4.80
2018-07-06T05:01:50.299Z,4.70
2018-07-06T05:04:35.799Z,5.03
2018-07-06T05:07:21.418Z,4.80
2018-07-06T05:10:07.106Z,4.90
2018-07-06T05:12:52.834Z,4.75
2018-07-06T05:15:38.416Z,4.90
2018-07-06T05:18:23.897Z,5.10
2018-07-06T05:21:09.296Z,4.92
2018-07-06T05:23:54.882Z,5.35
2018-07-06T05:26:40.521Z,4.70
2018-07-06T05:29:26.337Z,5.40
2018-07-06T05:32:11.863Z,5.00
2018-07-06T05:34:58.514Z,5.07
2018-07-06T05:37:44.234Z,4.83
2018-07-06T05:40:29.848Z,4.90
2018-07-06T05:43:16.588Z,4.77
2018-07-06T05:46:02.890Z,5.27
2018-07-06T05:48:49.597Z,5.10
2018-07-06T05:51:36.304Z,5.10
2018-07-06T05:54:22.604Z,5.20
2018-07-06T05:57:08.906Z,5.70
2018-07-06T05:59:54.791Z,5.90
2018-07-06T06:02:41.499Z,5.83
2018-07-06T06:05:28.212Z,6.13
2018-07-06T06:08:01.404Z,6.50
2018-07-06T06:10:31.325Z,5.83
2018-07-06T06:13:00.757Z,6.33
2018-07-06T06:15:30.721Z,6.50
2018-07-06T06:18:00.604Z,6.63
2018-07-06T06:20:30.083Z,7.00
2018-07-06T06:23:00.020Z,6.60
2018-07-06T06:25:29.987Z,6.70
2018-07-06T06:27:59.422Z,6.60
2018-07-06T06:30:29.380Z,6.60
2018-07-06T06:32:59.427Z,7.30
2018-07-06T06:35:28.762Z,6.33
2018-07-06T06:37:58.525Z,6.90
2018-07-06T06:40:28.280Z,7.27
2018-07-06T06:42:57.091Z,6.70
2018-07-06T06:45:26.846Z,6.80
2018-07-06T06:47:56.522Z,6.73
2018-07-06T06:50:26.260Z,6.87
2018-07-06T06:52:56.204Z,7.13
2018-07-06T06:55:26.072Z,6.90
2018-07-06T06:57:55.781Z,6.40
2018-07-06T07:00:27.534Z,5.73
2018-07-06T07:02:55.265Z,5.70
2018-07-06T07:05:25.008Z,6.00
2018-07-06T07:07:53.771Z,6.10
2018-07-06T07:10:23.482Z,6.50
2018-07-06T07:12:53.030Z,6.50
2018-07-06T07:15:22.514Z,6.00
2018-07-06T07:17:52.066Z,6.57
2018-07-06T07:20:21.811Z,6.30
2018-07-06T07:22:52.114Z,6.83
2018-07-06T07:25:21.795Z,6.20
2018-07-06T07:27:51.571Z,6.30
2018-07-06T07:30:21.589Z,6.20
2018-07-06T07:32:51.565Z,6.27
2018-07-06T07:35:21.559Z,5.40
2018-07-06T07:37:51.413Z,5.67
2018-07-06T07:40:21.524Z,5.90
2018-07-06T07:42:51.566Z,5.40
2018-07-06T07:45:21.490Z,5.60
2018-07-06T07:47:51.240Z,5.23
2018-07-06T07:50:21.313Z,5.20
2018-07-06T07:53:01.924Z,5.00
2018-07-06T07:55:32.088Z,5.43
2018-07-06T07:58:02.255Z,5.30
2018-07-06T08:00:31.802Z,4.80
2018-07-06T08:03:01.782Z,4.40
2018-07-06T08:05:31.447Z,4.83
2018-07-06T08:08:01.155Z,5.07
2018-07-06T08:10:30.990Z,5.30
2018-07-06T08:13:00.628Z,5.07
2018-07-06T08:15:30.526Z,4.10
2018-07-06T08:18:00.172Z,4.10
2018-07-06T08:20:29.715Z,3.43
2018-07-06T08:22:59.211Z,2.90
2018-07-06T08:25:29.164Z,3.00
2018-07-06T08:27:58.524Z,2.60
2018-07-06T08:30:28.110Z,2.50
2018-07-06T08:32:58.185Z,2.67
2018-07-06T08:35:39.077Z,2.50
2018-07-06T08:38:08.659Z,2.60
2018-07-06T08:40:38.136Z,2.80
2018-07-06T08:43:08.094Z,3.00
2018-07-06T08:45:37.880Z,3.00
2018-07-06T08:48:07.397Z,2.77
2018-07-06T08:50:36.994Z,2.63
2018-07-06T08:53:06.805Z,2.60
2018-07-06T08:55:36.284Z,3.10
2018-07-06T08:58:05.852Z,2.40
2018-07-06T09:00:35.570Z,2.67
2018-07-06T09:03:06.176Z,2.63
2018-07-06T09:05:36.505Z,2.27
2018-07-06T09:08:06.420Z,2.47
2018-07-06T09:10:36.609Z,2.60
2018-07-06T09:13:07.027Z,2.80
2018-07-06T09:15:36.806Z,2.80
2018-07-06T09:18:06.979Z,2.70
2018-07-06T09:20:37.108Z,2.57
2018-07-06T09:23:06.593Z,2.30
2018-07-06T09:25:36.474Z,2.80
2018-07-06T09:28:06.414Z,2.17
2018-07-06T09:30:36.461Z,2.67
2018-07-06T09:33:06.242Z,2.50
2018-07-06T09:35:36.237Z,2.53
2018-07-06T09:38:05.652Z,2.50
2018-07-06T09:40:35.594Z,2.20
2018-07-06T09:43:05.784Z,2.60
2018-07-06T09:45:35.418Z,2.70
2018-07-06T09:48:04.542Z,2.47
2018-07-06T09:50:34.483Z,2.40
2018-07-06T09:53:04.393Z,2.37
2018-07-06T09:55:34.569Z,2.30
2018-07-06T09:58:04.236Z,2.20
2018-07-06T10:00:39.183Z,2.50
2018-07-06T10:03:08.880Z,2.20
2018-07-06T10:05:38.701Z,2.47
2018-07-06T10:08:08.477Z,2.47
2018-07-06T10:10:38.469Z,2.53
2018-07-06T10:13:08.574Z,2.30
2018-07-06T10:15:38.502Z,2.33
2018-07-06T10:18:08.396Z,2.50
2018-07-06T10:20:38.336Z,2.47
2018-07-06T10:23:08.309Z,2.20
2018-07-06T10:25:37.800Z,2.30
2018-07-06T10:28:14.675Z,2.20
2018-07-06T10:31:58.304Z,2.20
2018-07-06T10:34:27.875Z,2.17
2018-07-06T10:36:57.261Z,2.10
2018-07-06T10:39:26.785Z,2.20
2018-07-06T10:41:56.566Z,2.20
2018-07-06T10:44:26.623Z,2.20
2018-07-06T10:46:55.663Z,2.33
2018-07-06T10:49:26.336Z,2.10
2018-07-06T10:51:55.966Z,2.13
2018-07-06T10:54:25.976Z,2.10
2018-07-06T10:56:54.774Z,2.03
2018-07-06T10:59:24.958Z,2.20
2018-07-06T11:01:53.872Z,2.10
2018-07-06T11:04:23.513Z,2.07
2018-07-06T11:06:52.266Z,2.10
2018-07-06T11:09:20.987Z,2.50
2018-07-06T11:11:50.716Z,2.30
2018-07-06T11:14:20.743Z,2.20
2018-07-06T11:16:49.533Z,2.20
2018-07-06T11:19:18.339Z,2.17
2018-07-06T11:21:47.932Z,2.10
2018-07-06T11:24:17.876Z,2.00
2018-07-06T11:26:47.773Z,2.17
2018-07-06T11:29:16.600Z,2.00
2018-07-06T11:31:45.440Z,2.20
2018-07-06T11:34:15.052Z,2.43
2018-07-06T11:36:43.760Z,2.10
2018-07-06T11:39:13.731Z,2.30
2018-07-06T11:41:42.520Z,2.20
2018-07-06T11:44:12.166Z,2.30
2018-07-06T11:46:40.908Z,2.40
2018-07-06T11:49:09.617Z,2.20
2018-07-06T11:51:39.688Z,2.20
2018-07-06T11:54:08.458Z,2.20
2018-07-06T11:56:38.439Z,2.30
2018-07-06T11:59:08.183Z,2.27
2018-07-06T12:01:37.003Z,2.30
2018-07-06T12:04:05.805Z,2.40
2018-07-06T12:06:35.433Z,2.40
2018-07-06T12:09:05.341Z,2.50
2018-07-06T12:11:34.229Z,2.10
2018-07-06T12:14:04.033Z,2.10
2018-07-06T12:16:32.813Z,2.20
2018-07-06T12:19:01.312Z,2.33
2018-07-06T12:21:30.173Z,2.33
2018-07-06T12:23:58.900Z,2.33
2018-07-06T12:26:27.647Z,2.20
2018-07-06T12:28:56.679Z,2.20
2018-07-06T12:31:25.412Z,2.10
2018-07-06T12:33:54.179Z,2.37
2018-07-06T12:36:22.916Z,2.50
2018-07-06T12:38:51.849Z,2.30
2018-07-06T12:41:20.670Z,2.40
2018-07-06T12:43:50.032Z,2.23
2018-07-06T12:46:18.925Z,2.40
2018-07-06T12:48:47.641Z,2.43
2018-07-06T12:51:16.445Z,2.13
2018-07-06T12:53:45.189Z,2.40
2018-07-06T12:56:13.933Z,2.30
2018-07-06T12:58:42.843Z,2.20
2018-07-06T13:01:11.516Z,2.40
2018-07-06T13:03:40.338Z,2.40
2018-07-06T13:06:09.154Z,2.30
2018-07-06T13:08:37.935Z,2.50
2018-07-06T13:11:06.738Z,2.40
2018-07-06T13:13:35.470Z,2.40
2018-07-06T13:16:04.234Z,2.50
2018-07-06T13:18:33.041Z,2.47
2018-07-06T13:21:01.887Z,2.50
2018-07-06T13:23:30.328Z,2.57
2018-07-06T13:25:59.228Z,2.40
2018-07-06T13:28:28.148Z,2.33
2018-07-06T13:30:56.875Z,2.40
2018-07-06T13:33:25.588Z,2.50
2018-07-06T13:35:54.428Z,2.40
2018-07-06T13:38:23.212Z,2.60
2018-07-06T13:40:51.950Z,2.40
2018-07-06T13:43:20.664Z,2.50
2018-07-06T13:45:49.360Z,2.37
2018-07-06T13:48:18.352Z,2.50
2018-07-06T13:50:47.144Z,2.30
2018-07-06T13:53:16.125Z,2.50
2018-07-06T13:55:44.863Z,2.50
2018-07-06T13:58:13.720Z,2.50
2018-07-06T14:00:43.283Z,2.40
2018-07-06T14:03:13.896Z,2.70
2018-07-06T14:05:43.888Z,2.73
2018-07-06T14:08:13.748Z,3.00
2018-07-06T14:10:43.602Z,2.37
2018-07-06T14:13:13.509Z,2.50
2018-07-06T14:15:42.369Z,2.57
2018-07-06T14:18:11.105Z,2.40
2018-07-06T14:20:39.841Z,2.40
2018-07-06T14:23:09.865Z,2.40
2018-07-06T14:25:38.764Z,2.50
2018-07-06T14:28:08.323Z,2.67
2018-07-06T14:30:37.986Z,2.20
2018-07-06T14:33:06.726Z,2.50
2018-07-06T14:35:35.495Z,2.50
2018-07-06T14:38:04.285Z,2.50
2018-07-06T14:40:33.829Z,2.30
2018-07-06T14:43:03.404Z,2.30
2018-07-06T14:45:32.836Z,2.30
2018-07-06T14:48:01.687Z,2.30
2018-07-06T14:50:30.412Z,2.30
2018-07-06T14:52:59.370Z,2.50
2018-07-06T14:55:28.104Z,2.30
2018-07-06T14:57:57.706Z,2.40
2018-07-06T15:00:27.697Z,2.30
2018-07-06T15:02:56.408Z,2.40
2018-07-06T15:05:25.133Z,2.23
2018-07-06T15:07:53.916Z,2.40
2018-07-06T15:10:22.820Z,2.40
2018-07-06T15:12:52.221Z,2.47
2018-07-06T15:15:20.970Z,2.50
2018-07-06T15:17:49.772Z,2.47
2018-07-06T15:20:18.440Z,2.30
2018-07-06T15:22:47.187Z,2.50
2018-07-06T15:25:15.980Z,2.40
2018-07-06T15:27:44.809Z,2.40
2018-07-06T15:30:13.703Z,2.30
2018-07-06T15:32:42.433Z,2.10
2018-07-06T15:35:12.427Z,2.27
2018-07-06T15:37:41.169Z,2.40
2018-07-06T15:40:09.990Z,2.20
2018-07-06T15:42:38.724Z,2.30
2018-07-06T15:45:07.433Z,2.63
2018-07-06T15:47:36.222Z,2.60
2018-07-06T15:50:05.124Z,2.47
2018-07-06T15:52:34.883Z,2.70
2018-07-06T15:55:03.602Z,2.47
2018-07-06T15:57:32.465Z,2.37
2018-07-06T16:00:01.230Z,2.57
2018-07-06T16:02:30.164Z,2.43
2018-07-06T16:04:58.912Z,2.50
2018-07-06T16:07:27.685Z,2.40
2018-07-06T16:09:56.542Z,2.30
2018-07-06T16:12:25.257Z,2.60
2018-07-06T16:14:53.985Z,2.90
2018-07-06T16:17:22.799Z,2.40
2018-07-06T16:19:52.480Z,2.77
2018-07-06T16:22:22.076Z,2.43
2018-07-06T16:24:51.526Z,2.50
2018-07-06T16:27:20.315Z,2.70
2018-07-06T16:29:50.506Z,2.40
2018-07-06T16:32:19.224Z,2.50
2018-07-06T16:34:47.910Z,2.50
2018-07-06T16:37:16.639Z,2.90
2018-07-06T16:39:45.512Z,2.60
2018-07-06T16:42:14.269Z,2.40
2018-07-06T16:44:43.432Z,2.47
2018-07-06T16:47:12.188Z,2.63
2018-07-06T16:49:42.094Z,2.50
2018-07-06T16:52:10.860Z,2.50
2018-07-06T16:54:40.686Z,2.57
2018-07-06T16:57:10.531Z,2.60
2018-07-06T16:59:39.258Z,2.63
2018-07-06T17:02:07.981Z,3.00
2018-07-06T17:04:37.909Z,2.80
2018-07-06T17:07:06.683Z,2.83
2018-07-06T17:09:36.530Z,2.60
2018-07-06T17:12:05.419Z,2.70
2018-07-06T17:14:35.083Z,2.80
2018-07-06T17:17:03.891Z,2.80
2018-07-06T17:19:33.647Z,2.70
2018-07-06T17:22:02.469Z,2.90
2018-07-06T17:24:32.241Z,2.83
2018-07-06T17:27:01.099Z,3.10
2018-07-06T17:29:29.864Z,3.13
2018-07-06T17:31:58.728Z,3.00
2018-07-06T17:34:27.439Z,3.27
2018-07-06T17:36:56.152Z,3.03
2018-07-06T17:39:25.768Z,3.00
2018-07-06T17:41:54.487Z,2.83
2018-07-06T17:44:23.815Z,2.90
2018-07-06T17:46:52.536Z,3.07
2018-07-06T17:49:21.393Z,3.20
2018-07-06T17:51:50.125Z,2.77
2018-07-06T17:54:19.711Z,2.70
2018-07-06T17:56:48.612Z,2.53
2018-07-06T17:59:18.747Z,2.63
2018-07-06T18:01:48.651Z,2.80
2018-07-06T18:04:17.369Z,2.60
2018-07-06T18:06:46.073Z,2.83
2018-07-06T18:09:15.658Z,2.90
2018-07-06T18:11:44.400Z,2.70
2018-07-06T18:14:13.294Z,2.77
2018-07-06T18:16:42.241Z,2.53
2018-07-06T18:19:11.023Z,2.90
2018-07-06T18:21:40.867Z,2.70
2018-07-06T18:24:09.761Z,2.67
2018-07-06T18:26:38.517Z,2.50
2018-07-06T18:29:22.157Z,2.90
2018-07-06T18:31:50.943Z,2.70
2018-07-06T18:34:20.444Z,2.43
2018-07-06T18:36:49.139Z,2.63
2018-07-06T18:39:17.935Z,2.60
2018-07-06T18:41:46.716Z,2.33
2018-07-06T18:44:15.527Z,2.43
2018-07-06T18:46:44.233Z,2.37
2018-07-06T18:49:13.101Z,2.53
2018-07-06T18:51:41.834Z,2.37
2018-07-06T18:54:10.626Z,2.63
2018-07-06T18:56:39.448Z,2.80
2018-07-06T18:59:09.180Z,2.60
2018-07-06T19:01:38.183Z,2.50
2018-07-06T19:04:07.106Z,2.93
2018-07-06T19:06:36.049Z,2.80
2018-07-06T19:09:05.824Z,2.83
2018-07-06T19:11:34.863Z,2.80
2018-07-06T19:14:04.370Z,2.87
2018-07-06T19:16:33.126Z,2.70
2018-07-06T19:19:01.834Z,2.60
2018-07-06T19:21:31.284Z,3.00
2018-07-06T19:24:00.041Z,2.50
2018-07-06T19:26:29.791Z,2.67
2018-07-06T19:28:59.539Z,2.93
2018-07-06T19:31:28.283Z,2.93
2018-07-06T19:33:57.922Z,2.80
2018-07-06T19:36:26.609Z,2.87
2018-07-06T19:38:56.160Z,2.97
2018-07-06T19:41:24.934Z,3.10
2018-07-06T19:43:53.768Z,2.90
2018-07-06T19:46:22.495Z,3.00
2018-07-06T19:48:52.762Z,2.97
2018-07-06T19:51:22.833Z,3.20
2018-07-06T19:53:51.764Z,2.90
2018-07-06T19:56:21.670Z,3.20
2018-07-06T19:58:50.367Z,3.00
2018-07-06T20:01:19.143Z,3.10
2018-07-06T20:03:47.937Z,3.07
2018-07-06T20:06:16.711Z,3.30
2018-07-06T20:08:45.516Z,3.30
2018-07-06T20:11:15.687Z,3.60
2018-07-06T20:13:44.384Z,3.40
2018-07-06T20:16:13.105Z,3.80
2018-07-06T20:18:41.828Z,3.90
2018-07-06T20:21:10.609Z,4.10
2018-07-06T20:23:39.302Z,3.83
2018-07-06T20:26:08.109Z,4.27
2018-07-06T20:28:36.838Z,4.27
2018-07-06T20:31:05.830Z,4.00
2018-07-06T20:33:34.635Z,3.90
2018-07-06T20:36:03.357Z,4.13
2018-07-06T20:38:32.131Z,3.80
2018-07-06T20:41:02.136Z,3.90
2018-07-06T20:43:30.924Z,3.97
2018-07-06T20:45:59.719Z,3.83
2018-07-06T20:48:29.257Z,4.20
2018-07-06T20:50:58.176Z,3.90
2018-07-06T20:53:26.973Z,4.00
2018-07-06T20:55:55.684Z,3.80
2018-07-06T20:58:24.426Z,3.60
2018-07-06T21:00:53.802Z,3.60
2018-07-06T21:03:22.560Z,3.90
2018-07-06T21:05:51.293Z,3.97
2018-07-06T21:08:20.075Z,4.20
2018-07-06T21:10:48.925Z,3.60
2018-07-06T21:13:17.666Z,3.63
2018-07-06T21:15:47.168Z,3.80
2018-07-06T21:18:15.931Z,3.60
2018-07-06T21:20:45.730Z,3.53
2018-07-06T21:23:15.715Z,3.87
2018-07-06T21:25:44.473Z,3.87
2018-07-06T21:28:14.272Z,3.80
2018-07-06T21:30:43.140Z,3.97
2018-07-06T21:33:11.938Z,4.00
2018-07-06T21:35:40.666Z,3.63
2018-07-06T21:38:09.440Z,3.90
2018-07-06T21:40:38.145Z,3.83
2018-07-06T21:43:07.645Z,3.83
2018-07-06T21:45:37.132Z,4.10
2018-07-06T21:48:05.866Z,4.07
2018-07-06T21:50:36.117Z,3.80
2018-07-06T21:53:04.891Z,4.13
2018-07-06T21:55:34.665Z,3.80
2018-07-06T21:58:04.255Z,3.97
2018-07-06T22:00:35.357Z,3.90
2018-07-06T22:03:05.170Z,3.60
2018-07-06T22:05:33.938Z,3.70
2018-07-06T22:08:04.053Z,3.90
2018-07-06T22:10:33.460Z,3.77
2018-07-06T22:13:02.297Z,3.73
2018-07-06T22:15:35.719Z,3.67
2018-07-06T22:18:05.582Z,3.90
2018-07-06T22:20:34.412Z,3.90
2018-07-06T22:23:03.789Z,3.80
2018-07-06T22:25:32.652Z,3.80
2018-07-06T22:28:01.395Z,3.97
2018-07-06T22:30:31.064Z,3.73
2018-07-06T22:33:00.172Z,3.77
2018-07-06T22:35:28.919Z,4.20
2018-07-06T22:37:58.600Z,3.77
2018-07-06T22:40:28.496Z,3.60
2018-07-06T22:42:57.211Z,3.63
2018-07-06T22:45:26.016Z,3.80
2018-07-06T22:47:54.783Z,3.90
2018-07-06T22:50:24.487Z,3.77
2018-07-06T22:52:53.212Z,3.30
2018-07-06T22:55:21.964Z,3.93
2018-07-06T22:57:51.947Z,4.10
2018-07-06T23:00:20.701Z,4.10
2018-07-06T23:02:50.279Z,3.97
2018-07-06T23:05:20.033Z,4.30
2018-07-06T23:10:42.290Z,4.30
2018-07-06T23:13:11.030Z,4.50
2018-07-06T23:15:39.803Z,4.60
2018-07-06T23:18:09.686Z,4.73
2018-07-06T23:20:39.669Z,5.00
2018-07-06T23:23:10.053Z,4.90
2018-07-06T23:25:45.216Z,4.53
2018-07-06T23:28:14.154Z,4.60
2018-07-06T23:30:43.872Z,4.80
2018-07-06T23:33:13.390Z,4.90
2018-07-06T23:35:42.220Z,4.80
2018-07-06T23:38:11.001Z,4.93
2018-07-06T23:40:39.862Z,4.97
2018-07-06T23:43:08.690Z,4.70
2018-07-06T23:45:38.382Z,5.00
2018-07-06T23:48:07.102Z,4.83
2018-07-06T23:50:35.831Z,5.00
2018-07-06T23:53:05.210Z,4.73
2018-07-06T23:55:33.928Z,5.60
2018-07-06T23:58:02.682Z,5.23
